createdAt,value
2023-07-18T00:04:11.206Z,67209.38
2023-07-18T00:09:17.102Z,67214.09
2023-07-18T00:14:21.058Z,67195.75
2023-07-18T00:19:25.684Z,67243.34
2023-07-18T00:24:31.305Z,67159.16
2023-07-18T00:29:35.284Z,67180.75
2023-07-18T00:34:41.969Z,67209.84
2023-07-18T00:39:48.329Z,67252.00
2023-07-18T00:44:53.169Z,67180.28
2023-07-18T00:49:57.506Z,67104.19
2023-07-18T00:55:03.389Z,67113.22
2023-07-18T01:00:10.677Z,67214.63
2023-07-18T01:05:18.887Z,67183.53
2023-07-18T01:10:25.865Z,67282.22
2023-07-18T01:15:32.362Z,67306.66
2023-07-18T01:20:37.261Z,67288.78
2023-07-18T01:25:43.007Z,67287.63
2023-07-18T01:30:48.098Z,67299.59
2023-07-18T01:35:53.253Z,67261.22
2023-07-18T01:40:58.540Z,67166.19
2023-07-18T01:46:03.048Z,67255.34
2023-07-18T01:51:06.954Z,67231.56
2023-07-18T01:56:12.362Z,67189.94
2023-07-18T02:01:16.531Z,67135.94
2023-07-18T02:06:20.449Z,67194.81
2023-07-18T02:11:26.175Z,67173.28
2023-07-18T02:16:30.089Z,67184.66
2023-07-18T02:21:34.392Z,67177.00
2023-07-18T02:26:39.675Z,67142.59
2023-07-18T02:31:43.799Z,67230.50
2023-07-18T02:36:48.807Z,67237.53
2023-07-18T02:41:53.909Z,67234.19
2023-07-18T02:46:57.889Z,67278.53
2023-07-18T02:52:01.811Z,67236.47
2023-07-18T02:57:07.897Z,67188.38
2023-07-18T03:02:14.404Z,67198.63
2023-07-18T03:07:21.781Z,67169.50
2023-07-18T03:12:30.333Z,67208.28
2023-07-18T03:17:37.980Z,67263.38
2023-07-18T03:22:44.822Z,67275.34
2023-07-18T03:27:53.754Z,67324.50
2023-07-18T03:32:58.988Z,67302.41
2023-07-18T03:38:04.804Z,67233.06
2023-07-18T03:43:09.998Z,67301.75
2023-07-18T03:48:15.370Z,67358.97
2023-07-18T03:53:22.234Z,67337.28
2023-07-18T03:58:31.026Z,67396.91
2023-07-18T04:03:38.828Z,67405.44
2023-07-18T04:08:45.817Z,67371.47
2023-07-18T04:13:53.067Z,67404.97
2023-07-18T04:18:59.921Z,67298.50
2023-07-18T04:24:10.395Z,67236.84
2023-07-18T04:29:20.766Z,67255.28
2023-07-18T04:34:27.704Z,67248.28
2023-07-18T04:39:34.700Z,67211.53
2023-07-18T04:44:43.080Z,67300.13
2023-07-18T04:49:50.694Z,67268.78
2023-07-18T04:54:57.123Z,67254.75
2023-07-18T05:00:06.958Z,67250.38
2023-07-18T05:05:12.726Z,67203.44
2023-07-18T05:10:20.089Z,67215.91
2023-07-18T05:15:28.043Z,67257.38
2023-07-18T05:20:34.984Z,67189.34
2023-07-18T05:25:42.690Z,67240.72
2023-07-18T05:30:55.275Z,67167.28
2023-07-18T05:36:06.028Z,67220.78
2023-07-18T05:41:13.278Z,67201.81
2023-07-18T05:46:22.583Z,67144.66
2023-07-18T05:51:29.773Z,67169.56
2023-07-18T05:56:37.506Z,67193.25
2023-07-18T06:01:47.286Z,67258.06
2023-07-18T06:06:56.597Z,67244.47
2023-07-18T06:12:04.733Z,67362.81
2023-07-18T06:17:13.179Z,67301.19
2023-07-18T06:22:20.217Z,67429.91
2023-07-18T06:27:28.274Z,67356.84
2023-07-18T06:32:35.344Z,67225.69
2023-07-18T06:37:43.810Z,67296.88
2023-07-18T06:42:51.161Z,67247.78
2023-07-18T06:48:00.949Z,67269.88
2023-07-18T06:53:08.523Z,67257.50
2023-07-18T06:58:15.874Z,67331.59
2023-07-18T07:03:24.565Z,67375.44
2023-07-18T07:08:30.988Z,67412.47
2023-07-18T07:13:41.955Z,67429.84
2023-07-18T07:18:52.520Z,67524.63
2023-07-18T07:24:00.108Z,67513.19
2023-07-18T07:29:08.884Z,67462.28
2023-07-18T07:34:17.497Z,67579.13
2023-07-18T07:39:23.030Z,67650.72
2023-07-18T07:44:27.781Z,67548.38
2023-07-18T07:49:34.571Z,67476.94
2023-07-18T07:54:41.360Z,67518.72
2023-07-18T07:59:46.485Z,67599.72
2023-07-18T08:04:54.007Z,67531.19
2023-07-18T08:09:59.153Z,67531.00
2023-07-18T08:15:03.310Z,67502.44
2023-07-18T08:20:11.660Z,67514.28
2023-07-18T08:25:15.792Z,67520.81
2023-07-18T08:30:21.215Z,67531.06
2023-07-18T08:35:26.765Z,67664.19
2023-07-18T08:40:30.897Z,67686.97
2023-07-18T08:45:38.821Z,67504.53
2023-07-18T08:50:44.558Z,67624.69
2023-07-18T08:55:49.355Z,67573.25
2023-07-18T09:00:53.749Z,67578.66
2023-07-18T09:06:03.383Z,67503.41
2023-07-18T09:11:07.714Z,67589.50
2023-07-18T09:16:16.327Z,67660.41
2023-07-18T09:21:25.184Z,67515.38
2023-07-18T09:26:30.196Z,67551.59
2023-07-18T09:31:36.686Z,67618.25
2023-07-18T09:36:57.587Z,67618.84
2023-07-18T09:42:08.575Z,67632.19
2023-07-18T09:47:18.256Z,67648.50
2023-07-18T09:52:30.769Z,67630.09
2023-07-18T09:57:39.683Z,67618.72
2023-07-18T10:02:47.603Z,67629.00
2023-07-18T10:07:56.188Z,67639.91
2023-07-18T10:13:04.119Z,67661.56
2023-07-18T10:18:19.983Z,67678.88
2023-07-18T10:23:43.420Z,67637.13
2023-07-18T10:28:56.562Z,67692.25
2023-07-18T10:34:19.978Z,67706.50
2023-07-18T10:39:42.532Z,67720.53
2023-07-18T10:44:49.767Z,67751.97
2023-07-18T10:49:57.153Z,67787.28
2023-07-18T10:55:06.342Z,67758.97
2023-07-18T11:00:12.916Z,67663.72
2023-07-18T11:05:17.789Z,67710.25
2023-07-18T11:10:23.372Z,67712.94
2023-07-18T11:15:31.725Z,67707.00
2023-07-18T11:20:38.778Z,67750.34
2023-07-18T11:25:44.825Z,67799.09
2023-07-18T11:30:50.498Z,67890.72
2023-07-18T11:35:57.902Z,67917.94
2023-07-18T11:41:07.404Z,67975.94
2023-07-18T11:46:14.370Z,67960.75
2023-07-18T11:51:21.875Z,67966.69
2023-07-18T11:56:30.760Z,67898.44
2023-07-18T12:01:39.031Z,67911.31
2023-07-18T12:06:45.731Z,67899.94
2023-07-18T12:11:55.862Z,67992.66
2023-07-18T12:17:03.293Z,67963.91
2023-07-18T12:22:08.353Z,68024.66
2023-07-18T12:27:16.984Z,67902.19
2023-07-18T12:32:28.335Z,68034.50
2023-07-18T12:37:36.012Z,68089.44
2023-07-18T12:42:44.398Z,68086.09
2023-07-18T12:47:52.085Z,68125.75
2023-07-18T12:52:59.106Z,67910.25
2023-07-18T12:58:05.213Z,68077.38
2023-07-18T13:03:09.407Z,68006.31
2023-07-18T13:08:14.012Z,68084.47
2023-07-18T13:13:19.544Z,68176.13
2023-07-18T13:18:24.672Z,68102.41
2023-07-18T13:23:29.086Z,68146.88
2023-07-18T13:28:36.854Z,68094.84
2023-07-18T13:33:44.803Z,68214.81
2023-07-18T13:38:54.911Z,68239.31
2023-07-18T13:44:04.592Z,68169.69
2023-07-18T13:49:10.679Z,68139.84
2023-07-18T13:54:17.350Z,68269.69
2023-07-18T13:59:24.023Z,68273.50
2023-07-18T14:04:29.534Z,68124.13
2023-07-18T14:09:34.530Z,68157.78
2023-07-18T14:14:41.822Z,68194.09
2023-07-18T14:19:49.467Z,68178.94
2023-07-18T14:24:56.779Z,68127.41
2023-07-18T14:30:04.017Z,68253.38
2023-07-18T14:35:10.916Z,68290.25
2023-07-18T14:40:15.678Z,68175.13
2023-07-18T14:45:23.597Z,68124.13
2023-07-18T14:50:29.233Z,68342.06
2023-07-18T14:55:35.804Z,68431.25
2023-07-18T15:00:46.627Z,68567.75
2023-07-18T15:05:53.265Z,68290.31
2023-07-18T15:11:00.644Z,68302.91
2023-07-18T15:16:09.842Z,68165.91
2023-07-18T15:21:17.214Z,68273.47
2023-07-18T15:26:22.795Z,68240.41
2023-07-18T15:31:28.769Z,68239.81
2023-07-18T15:36:33.693Z,68168.63
2023-07-18T15:41:39.751Z,68144.75
2023-07-18T15:46:46.279Z,68121.88
2023-07-18T15:51:53.074Z,68261.00
2023-07-18T15:56:58.171Z,68216.34
2023-07-18T16:02:05.602Z,67998.19
2023-07-18T16:07:11.046Z,67762.78
2023-07-18T16:12:17.307Z,67813.75
2023-07-18T16:17:26.373Z,67849.50
2023-07-18T16:22:33.757Z,67893.38
2023-07-18T16:27:38.855Z,67877.13
2023-07-18T16:32:46.394Z,67790.38
2023-07-18T16:37:53.182Z,67772.56
2023-07-18T16:42:58.667Z,67860.31
2023-07-18T16:48:06.378Z,67811.44
2023-07-18T16:53:10.794Z,67787.66
2023-07-18T16:58:17.524Z,67691.78
2023-07-18T17:03:24.992Z,67730.28
2023-07-18T17:08:31.110Z,67669.09
2023-07-18T17:13:37.745Z,67783.38
2023-07-18T17:18:45.973Z,67742.16
2023-07-18T17:23:52.063Z,67738.91
2023-07-18T17:28:59.094Z,67634.97
2023-07-18T17:34:07.317Z,67577.56
2023-07-18T17:39:14.047Z,67623.06
2023-07-18T17:44:21.348Z,67655.50
2023-07-18T17:49:29.174Z,67596.44
2023-07-18T17:54:33.541Z,67594.91
2023-07-18T17:59:37.867Z,67672.28
2023-07-18T18:04:43.447Z,67556.00
2023-07-18T18:09:47.517Z,67447.75
2023-07-18T18:14:55.546Z,67474.25
2023-07-18T18:20:01.230Z,67417.47
2023-07-18T18:25:05.484Z,67423.34
2023-07-18T18:30:10.177Z,67555.81
2023-07-18T18:35:15.390Z,67411.44
2023-07-18T18:40:19.745Z,67381.78
2023-07-18T18:45:24.841Z,67466.69
2023-07-18T18:50:31.908Z,67460.19
2023-07-18T18:55:36.721Z,67483.91
2023-07-18T19:00:42.976Z,67457.97
2023-07-18T19:05:50.349Z,67527.28
2023-07-18T19:11:06.586Z,67390.34
2023-07-18T19:16:24.821Z,67440.53
2023-07-18T19:21:38.617Z,67414.16
2023-07-18T19:26:44.771Z,67361.25
2023-07-18T19:31:50.546Z,67285.53
2023-07-18T19:36:56.631Z,67360.63
2023-07-18T19:42:00.512Z,67415.78
2023-07-18T19:47:04.605Z,67387.19
2023-07-18T19:52:10.070Z,67358.47
2023-07-18T19:57:14.648Z,67341.66
2023-07-18T20:02:18.874Z,67296.88
2023-07-18T20:07:26.340Z,67285.00
2023-07-18T20:12:31.289Z,67247.25
2023-07-18T20:17:36.837Z,67326.03
2023-07-18T20:22:45.451Z,67435.19
2023-07-18T20:27:49.963Z,67353.56
2023-07-18T20:32:53.830Z,67307.66
2023-07-18T20:38:01.938Z,67361.66
2023-07-18T20:43:08.839Z,67325.03
2023-07-18T20:48:13.840Z,67306.72
2023-07-18T20:53:20.433Z,67269.19
2023-07-18T20:58:26.475Z,67222.31
2023-07-18T21:03:32.943Z,67221.31
2023-07-18T21:08:39.393Z,67211.53
2023-07-18T21:13:46.706Z,67233.00
2023-07-18T21:18:53.653Z,67214.31
2023-07-18T21:24:02.600Z,67262.78
2023-07-18T21:29:09.024Z,67168.28
2023-07-18T21:34:16.224Z,67232.66
2023-07-18T21:39:24.834Z,67108.97
2023-07-18T21:44:32.285Z,67076.59
2023-07-18T21:49:37.196Z,67127.84
2023-07-18T21:54:42.730Z,67079.72
2023-07-18T21:59:47.903Z,67097.56
2023-07-18T22:04:54.049Z,67111.28
2023-07-18T22:10:00.640Z,67090.50
2023-07-18T22:15:06.307Z,67123.47
2023-07-18T22:20:12.709Z,67062.66
2023-07-18T22:25:19.748Z,67035.69
2023-07-18T22:30:26.276Z,67025.88
2023-07-18T22:35:31.885Z,67002.25
2023-07-18T22:40:38.849Z,67022.13
2023-07-18T22:45:44.329Z,67082.56
2023-07-18T22:50:52.438Z,67024.28
2023-07-18T22:56:01.234Z,67078.63
2023-07-18T23:01:06.438Z,67078.75
2023-07-18T23:06:10.440Z,67042.16
2023-07-18T23:11:15.622Z,66988.72
2023-07-18T23:16:19.706Z,67007.63
2023-07-18T23:21:26.471Z,66960.72
2023-07-18T23:26:36.179Z,66912.69
2023-07-18T23:31:43.200Z,66965.66
2023-07-18T23:36:50.341Z,66936.97
2023-07-18T23:41:59.786Z,66970.31
2023-07-18T23:47:07.036Z,67010.81
2023-07-18T23:52:12.277Z,67018.91
2023-07-18T23:57:18.935Z,66987.53
